sensor_id;sensor_type;location;lat;lon;timestamp;pressure;altitude;pressure_sealevel;temperature;humidity
69411;BME280;56604;48.652;9.194;2023-04-26T00:00:34;96283.97;;;6.22;83.46
69411;BME280;56604;48.652;9.194;2023-04-26T00:03:00;96281.81;;;6.19;83.93
69411;BME280;56604;48.652;9.194;2023-04-26T00:05:26;96290.72;;;6.12;84.43
69411;BME280;56604;48.652;9.194;2023-04-26T00:07:52;96280.66;;;6.15;85.00
69411;BME280;56604;48.652;9.194;2023-04-26T00:10:18;96276.59;;;6.19;85.42
69411;BME280;56604;48.652;9.194;2023-04-26T00:12:43;96279.94;;;6.08;85.28
69411;BME280;56604;48.652;9.194;2023-04-26T00:15:09;96278.06;;;6.15;85.20
69411;BME280;56604;48.652;9.194;2023-04-26T00:17:34;96282.03;;;5.99;85.13
69411;BME280;56604;48.652;9.194;2023-04-26T00:20:00;96284.91;;;5.91;85.46
69411;BME280;56604;48.652;9.194;2023-04-26T00:22:26;96281.38;;;5.85;86.35
69411;BME280;56604;48.652;9.194;2023-04-26T00:24:52;96280.38;;;5.86;85.98
69411;BME280;56604;48.652;9.194;2023-04-26T00:27:18;96272.09;;;5.90;86.04
69411;BME280;56604;48.652;9.194;2023-04-26T00:29:43;96279.00;;;5.84;85.91
69411;BME280;56604;48.652;9.194;2023-04-26T00:32:09;96267.03;;;5.76;86.67
69411;BME280;56604;48.652;9.194;2023-04-26T00:34:35;96272.59;;;5.80;87.27
69411;BME280;56604;48.652;9.194;2023-04-26T00:37:01;96267.81;;;5.77;86.45
69411;BME280;56604;48.652;9.194;2023-04-26T00:39:27;96269.03;;;5.74;85.80
69411;BME280;56604;48.652;9.194;2023-04-26T00:41:53;96263.38;;;5.77;85.94
69411;BME280;56604;48.652;9.194;2023-04-26T00:44:18;96267.81;;;5.77;86.75
69411;BME280;56604;48.652;9.194;2023-04-26T00:46:43;96267.47;;;5.73;86.25
69411;BME280;56604;48.652;9.194;2023-04-26T00:49:15;96269.47;;;5.71;86.40
69411;BME280;56604;48.652;9.194;2023-04-26T00:51:42;96273.56;;;5.67;86.14
69411;BME280;56604;48.652;9.194;2023-04-26T00:54:08;96274.53;;;5.66;86.07
69411;BME280;56604;48.652;9.194;2023-04-26T00:56:35;96276.38;;;5.66;86.43
69411;BME280;56604;48.652;9.194;2023-04-26T00:59:02;96279.56;;;5.68;86.65
69411;BME280;56604;48.652;9.194;2023-04-26T01:01:27;96280.78;;;5.65;85.73
69411;BME280;56604;48.652;9.194;2023-04-26T01:03:53;96280.34;;;5.68;86.21
69411;BME280;56604;48.652;9.194;2023-04-26T01:06:19;96287.59;;;5.66;86.34
69411;BME280;56604;48.652;9.194;2023-04-26T01:08:44;96285.13;;;5.71;86.41
69411;BME280;56604;48.652;9.194;2023-04-26T01:11:10;96283.53;;;5.70;86.53
69411;BME280;56604;48.652;9.194;2023-04-26T01:13:36;96274.00;;;5.64;85.77
69411;BME280;56604;48.652;9.194;2023-04-26T01:16:02;96283.19;;;5.67;85.94
69411;BME280;56604;48.652;9.194;2023-04-26T01:18:28;96278.41;;;5.63;85.17
69411;BME280;56604;48.652;9.194;2023-04-26T01:20:54;96281.06;;;5.57;85.32
69411;BME280;56604;48.652;9.194;2023-04-26T01:23:21;96281.13;;;5.50;84.75
69411;BME280;56604;48.652;9.194;2023-04-26T01:25:47;96280.63;;;5.41;84.78
69411;BME280;56604;48.652;9.194;2023-04-26T01:28:12;96280.47;;;5.36;84.85
69411;BME280;56604;48.652;9.194;2023-04-26T01:30:37;96281.47;;;5.35;84.94
69411;BME280;56604;48.652;9.194;2023-04-26T01:33:03;96278.06;;;5.35;84.93
69411;BME280;56604;48.652;9.194;2023-04-26T01:35:28;96281.16;;;5.25;84.36
69411;BME280;56604;48.652;9.194;2023-04-26T01:37:53;96277.25;;;5.16;83.73
69411;BME280;56604;48.652;9.194;2023-04-26T01:40:19;96270.84;;;5.12;84.13
69411;BME280;56604;48.652;9.194;2023-04-26T01:42:44;96274.09;;;5.07;83.65
69411;BME280;56604;48.652;9.194;2023-04-26T01:45:10;96279.78;;;4.97;84.22
69411;BME280;56604;48.652;9.194;2023-04-26T01:47:35;96283.81;;;4.93;84.33
69411;BME280;56604;48.652;9.194;2023-04-26T01:50:01;96276.63;;;4.89;83.96
69411;BME280;56604;48.652;9.194;2023-04-26T01:52:26;96283.91;;;4.80;83.99
69411;BME280;56604;48.652;9.194;2023-04-26T01:54:51;96284.34;;;4.77;84.44
69411;BME280;56604;48.652;9.194;2023-04-26T01:57:17;96285.97;;;4.71;84.33
69411;BME280;56604;48.652;9.194;2023-04-26T01:59:42;96273.38;;;4.68;84.13
69411;BME280;56604;48.652;9.194;2023-04-26T02:02:08;96274.41;;;4.67;84.00
69411;BME280;56604;48.652;9.194;2023-04-26T02:04:33;96279.38;;;4.69;84.09
69411;BME280;56604;48.652;9.194;2023-04-26T02:06:58;96274.41;;;4.67;83.40
69411;BME280;56604;48.652;9.194;2023-04-26T02:09:23;96272.00;;;4.66;82.53
69411;BME280;56604;48.652;9.194;2023-04-26T02:11:49;96270.81;;;4.62;82.96
69411;BME280;56604;48.652;9.194;2023-04-26T02:14:14;96277.28;;;4.53;83.55
69411;BME280;56604;48.652;9.194;2023-04-26T02:16:40;96277.69;;;4.49;83.69
69411;BME280;56604;48.652;9.194;2023-04-26T02:19:05;96276.53;;;4.45;83.50
69411;BME280;56604;48.652;9.194;2023-04-26T02:21:49;96280.34;;;4.43;83.02
69411;BME280;56604;48.652;9.194;2023-04-26T02:24:16;96277.13;;;4.47;81.45
69411;BME280;56604;48.652;9.194;2023-04-26T02:26:41;96279.31;;;4.44;80.88
69411;BME280;56604;48.652;9.194;2023-04-26T02:29:06;96280.16;;;4.44;80.87
69411;BME280;56604;48.652;9.194;2023-04-26T02:31:31;96271.31;;;4.45;80.53
69411;BME280;56604;48.652;9.194;2023-04-26T02:33:57;96277.38;;;4.39;79.61
69411;BME280;56604;48.652;9.194;2023-04-26T02:36:22;96274.53;;;4.41;81.06
69411;BME280;56604;48.652;9.194;2023-04-26T02:38:47;96272.16;;;4.39;79.93
69411;BME280;56604;48.652;9.194;2023-04-26T02:41:12;96266.72;;;4.41;78.75
69411;BME280;56604;48.652;9.194;2023-04-26T02:43:38;96264.72;;;4.43;78.83
69411;BME280;56604;48.652;9.194;2023-04-26T02:46:06;96267.13;;;4.44;78.84
69411;BME280;56604;48.652;9.194;2023-04-26T02:48:31;96272.09;;;4.46;78.02
69411;BME280;56604;48.652;9.194;2023-04-26T02:50:57;96270.94;;;4.42;78.37
69411;BME280;56604;48.652;9.194;2023-04-26T02:53:22;96276.09;;;4.48;79.63
69411;BME280;56604;48.652;9.194;2023-04-26T02:55:47;96279.31;;;4.50;80.21
69411;BME280;56604;48.652;9.194;2023-04-26T02:58:13;96289.72;;;4.50;80.72
69411;BME280;56604;48.652;9.194;2023-04-26T03:00:38;96286.88;;;4.52;80.59
69411;BME280;56604;48.652;9.194;2023-04-26T03:03:03;96282.09;;;4.56;80.58
69411;BME280;56604;48.652;9.194;2023-04-26T03:05:29;96288.09;;;4.56;81.13
69411;BME280;56604;48.652;9.194;2023-04-26T03:07:54;96286.28;;;4.57;80.66
69411;BME280;56604;48.652;9.194;2023-04-26T03:10:20;96277.88;;;4.55;80.69
69411;BME280;56604;48.652;9.194;2023-04-26T03:12:46;96279.44;;;4.62;80.50
69411;BME280;56604;48.652;9.194;2023-04-26T03:15:11;96280.41;;;4.68;80.95
69411;BME280;56604;48.652;9.194;2023-04-26T03:17:36;96272.78;;;4.66;79.95
69411;BME280;56604;48.652;9.194;2023-04-26T03:20:02;96274.81;;;4.64;80.49
69411;BME280;56604;48.652;9.194;2023-04-26T03:22:30;96274.00;;;4.64;80.02
69411;BME280;56604;48.652;9.194;2023-04-26T03:24:55;96273.75;;;4.72;80.32
69411;BME280;56604;48.652;9.194;2023-04-26T03:27:21;96280.41;;;4.68;80.82
69411;BME280;56604;48.652;9.194;2023-04-26T03:29:46;96280.03;;;4.58;81.56
69411;BME280;56604;48.652;9.194;2023-04-26T03:32:11;96277.50;;;4.51;81.15
69411;BME280;56604;48.652;9.194;2023-04-26T03:34:37;96281.72;;;4.45;81.52
69411;BME280;56604;48.652;9.194;2023-04-26T03:37:02;96274.53;;;4.41;81.13
69411;BME280;56604;48.652;9.194;2023-04-26T03:39:27;96270.94;;;4.42;82.16
69411;BME280;56604;48.652;9.194;2023-04-26T03:41:52;96277.78;;;4.36;82.70
69411;BME280;56604;48.652;9.194;2023-04-26T03:44:18;96273.19;;;4.32;82.42
69411;BME280;56604;48.652;9.194;2023-04-26T03:46:43;96278.78;;;4.35;83.33
69411;BME280;56604;48.652;9.194;2023-04-26T03:49:09;96270.16;;;4.35;83.05
69411;BME280;56604;48.652;9.194;2023-04-26T03:51:34;96267.16;;;4.38;82.85
69411;BME280;56604;48.652;9.194;2023-04-26T03:53:59;96261.38;;;4.29;83.14
69411;BME280;56604;48.652;9.194;2023-04-26T03:56:24;96265.00;;;4.28;83.52
69411;BME280;56604;48.652;9.194;2023-04-26T03:58:50;96270.81;;;4.23;83.87
69411;BME280;56604;48.652;9.194;2023-04-26T04:01:15;96273.44;;;4.23;83.79
69411;BME280;56604;48.652;9.194;2023-04-26T04:03:41;96279.03;;;4.27;84.69
69411;BME280;56604;48.652;9.194;2023-04-26T04:06:06;96285.47;;;4.18;85.37
69411;BME280;56604;48.652;9.194;2023-04-26T04:08:32;96285.88;;;4.15;85.43
69411;BME280;56604;48.652;9.194;2023-04-26T04:10:58;96273.41;;;4.30;85.02
69411;BME280;56604;48.652;9.194;2023-04-26T04:13:23;96279.47;;;4.17;85.33
69411;BME280;56604;48.652;9.194;2023-04-26T04:15:48;96279.91;;;4.08;84.73
69411;BME280;56604;48.652;9.194;2023-04-26T04:18:14;96280.34;;;4.04;84.48
69411;BME280;56604;48.652;9.194;2023-04-26T04:20:45;96276.72;;;4.05;85.30
69411;BME280;56604;48.652;9.194;2023-04-26T04:23:10;96267.72;;;4.08;85.51
69411;BME280;56604;48.652;9.194;2023-04-26T04:25:36;96265.59;;;4.30;84.31
69411;BME280;56604;48.652;9.194;2023-04-26T04:28:01;96274.88;;;4.51;84.04
69411;BME280;56604;48.652;9.194;2023-04-26T04:30:28;96270.81;;;4.62;83.61
69411;BME280;56604;48.652;9.194;2023-04-26T04:32:54;96275.09;;;4.81;83.25
69411;BME280;56604;48.652;9.194;2023-04-26T04:35:21;96270.84;;;5.12;82.17
69411;BME280;56604;48.652;9.194;2023-04-26T04:37:47;96277.00;;;5.43;80.87
69411;BME280;56604;48.652;9.194;2023-04-26T04:40:14;96279.44;;;5.81;79.19
69411;BME280;56604;48.652;9.194;2023-04-26T04:42:40;96273.84;;;6.14;79.19
69411;BME280;56604;48.652;9.194;2023-04-26T04:45:06;96275.88;;;6.72;76.30
69411;BME280;56604;48.652;9.194;2023-04-26T04:47:31;96267.38;;;6.77;75.83
69411;BME280;56604;48.652;9.194;2023-04-26T04:49:58;96262.06;;;6.95;74.46
69411;BME280;56604;48.652;9.194;2023-04-26T04:52:24;96268.03;;;7.38;74.66
69411;BME280;56604;48.652;9.194;2023-04-26T04:54:49;96275.03;;;7.26;73.69
69411;BME280;56604;48.652;9.194;2023-04-26T04:57:15;96271.97;;;7.05;73.94
69411;BME280;56604;48.652;9.194;2023-04-26T04:59:40;96280.28;;;7.26;74.81
69411;BME280;56604;48.652;9.194;2023-04-26T05:02:06;96280.50;;;7.59;72.35
69411;BME280;56604;48.652;9.194;2023-04-26T05:04:31;96287.13;;;7.50;72.42
69411;BME280;56604;48.652;9.194;2023-04-26T05:07:01;96295.63;;;7.81;72.10
69411;BME280;56604;48.652;9.194;2023-04-26T05:09:26;96287.47;;;8.18;71.21
69411;BME280;56604;48.652;9.194;2023-04-26T05:11:52;96295.56;;;8.16;69.49
69411;BME280;56604;48.652;9.194;2023-04-26T05:14:17;96295.94;;;7.96;69.45
69411;BME280;56604;48.652;9.194;2023-04-26T05:16:42;96298.13;;;7.76;69.13
69411;BME280;56604;48.652;9.194;2023-04-26T05:19:08;96303.50;;;7.57;71.81
69411;BME280;56604;48.652;9.194;2023-04-26T05:21:33;96304.72;;;7.31;72.45
69411;BME280;56604;48.652;9.194;2023-04-26T05:23:58;96293.94;;;7.28;72.63
69411;BME280;56604;48.652;9.194;2023-04-26T05:26:24;96298.47;;;7.20;72.60
69411;BME280;56604;48.652;9.194;2023-04-26T05:28:49;96304.28;;;7.46;71.75
69411;BME280;56604;48.652;9.194;2023-04-26T05:31:15;96316.00;;;7.32;72.52
69411;BME280;56604;48.652;9.194;2023-04-26T05:33:40;96314.19;;;7.32;74.14
69411;BME280;56604;48.652;9.194;2023-04-26T05:36:06;96320.56;;;7.72;72.06
69411;BME280;56604;48.652;9.194;2023-04-26T05:38:33;96312.81;;;7.30;74.00
69411;BME280;56604;48.652;9.194;2023-04-26T05:40:59;96317.22;;;7.88;71.26
69411;BME280;56604;48.652;9.194;2023-04-26T05:43:24;96312.31;;;8.03;70.59
69411;BME280;56604;48.652;9.194;2023-04-26T05:45:54;96313.44;;;8.07;69.96
69411;BME280;56604;48.652;9.194;2023-04-26T05:48:21;96321.75;;;8.04;69.99
69411;BME280;56604;48.652;9.194;2023-04-26T05:50:47;96322.22;;;8.01;71.57
69411;BME280;56604;48.652;9.194;2023-04-26T05:53:12;96321.72;;;8.16;71.44
69411;BME280;56604;48.652;9.194;2023-04-26T05:55:40;96321.72;;;8.16;70.84
69411;BME280;56604;48.652;9.194;2023-04-26T05:58:05;96322.09;;;8.20;70.80
69411;BME280;56604;48.652;9.194;2023-04-26T06:00:31;96319.16;;;8.04;69.07
69411;BME280;56604;48.652;9.194;2023-04-26T06:02:57;96326.78;;;7.82;71.18
69411;BME280;56604;48.652;9.194;2023-04-26T06:05:22;96328.66;;;8.74;67.19
69411;BME280;56604;48.652;9.194;2023-04-26T06:07:47;96322.75;;;9.30;65.35
69411;BME280;56604;48.652;9.194;2023-04-26T06:10:13;96324.41;;;9.36;64.50
69411;BME280;56604;48.652;9.194;2023-04-26T06:12:38;96318.31;;;9.47;64.82
69411;BME280;56604;48.652;9.194;2023-04-26T06:15:04;96321.56;;;9.54;64.67
69411;BME280;56604;48.652;9.194;2023-04-26T06:17:29;96344.66;;;8.61;66.04
69411;BME280;56604;48.652;9.194;2023-04-26T06:19:55;96335.22;;;9.06;65.53
69411;BME280;56604;48.652;9.194;2023-04-26T06:22:20;96333.56;;;9.33;63.62
69411;BME280;56604;48.652;9.194;2023-04-26T06:24:45;96329.97;;;9.73;61.99
69411;BME280;56604;48.652;9.194;2023-04-26T06:27:11;96329.28;;;10.00;62.26
69411;BME280;56604;48.652;9.194;2023-04-26T06:29:36;96334.13;;;9.69;63.79
69411;BME280;56604;48.652;9.194;2023-04-26T06:32:01;96334.06;;;10.42;60.22
69411;BME280;56604;48.652;9.194;2023-04-26T06:34:27;96337.00;;;10.72;58.28
69411;BME280;56604;48.652;9.194;2023-04-26T06:36:52;96346.63;;;10.89;58.36
69411;BME280;56604;48.652;9.194;2023-04-26T06:39:18;96339.22;;;11.40;56.05
69411;BME280;56604;48.652;9.194;2023-04-26T06:41:43;96345.00;;;10.33;59.31
69411;BME280;56604;48.652;9.194;2023-04-26T06:44:08;96339.66;;;10.28;59.02
69411;BME280;56604;48.652;9.194;2023-04-26T06:46:33;96356.13;;;10.02;59.47
69411;BME280;56604;48.652;9.194;2023-04-26T06:49:00;96354.31;;;9.35;63.37
69411;BME280;56604;48.652;9.194;2023-04-26T06:51:25;96349.25;;;10.62;59.76
69411;BME280;56604;48.652;9.194;2023-04-26T06:53:51;96346.59;;;10.84;56.45
69411;BME280;56604;48.652;9.194;2023-04-26T06:56:17;96353.53;;;10.07;59.92
69411;BME280;56604;48.652;9.194;2023-04-26T06:59:06;96342.16;;;10.62;59.24
69411;BME280;56604;48.652;9.194;2023-04-26T07:01:33;96345.81;;;10.61;56.16
69411;BME280;56604;48.652;9.194;2023-04-26T07:04:02;96353.41;;;10.35;55.82
69411;BME280;56604;48.652;9.194;2023-04-26T07:06:29;96347.81;;;9.54;58.74
69411;BME280;56604;48.652;9.194;2023-04-26T07:08:57;96345.41;;;9.53;56.20
69411;BME280;56604;48.652;9.194;2023-04-26T07:11:22;96338.75;;;10.01;55.63
69411;BME280;56604;48.652;9.194;2023-04-26T07:13:47;96333.63;;;11.31;54.21
69411;BME280;56604;48.652;9.194;2023-04-26T07:16:13;96327.66;;;12.31;49.25
69411;BME280;56604;48.652;9.194;2023-04-26T07:18:39;96328.25;;;12.43;51.17
69411;BME280;56604;48.652;9.194;2023-04-26T07:21:05;96330.03;;;13.26;46.78
69411;BME280;56604;48.652;9.194;2023-04-26T07:23:30;96330.25;;;12.99;48.87
69411;BME280;56604;48.652;9.194;2023-04-26T07:25:56;96334.19;;;12.81;49.10
69411;BME280;56604;48.652;9.194;2023-04-26T07:28:21;96335.69;;;11.29;49.87
69411;BME280;56604;48.652;9.194;2023-04-26T07:30:46;96325.44;;;12.70;48.16
69411;BME280;56604;48.652;9.194;2023-04-26T07:33:13;96329.97;;;13.05;47.11
69411;BME280;56604;48.652;9.194;2023-04-26T07:35:38;96333.44;;;12.23;40.94
69411;BME280;56604;48.652;9.194;2023-04-26T07:38:03;96330.69;;;11.28;44.06
69411;BME280;56604;48.652;9.194;2023-04-26T07:40:29;96329.16;;;11.69;44.54
69411;BME280;56604;48.652;9.194;2023-04-26T07:42:55;96332.53;;;11.27;43.13
69411;BME280;56604;48.652;9.194;2023-04-26T07:45:20;96333.03;;;11.56;44.10
69411;BME280;56604;48.652;9.194;2023-04-26T07:47:46;96346.56;;;10.56;47.43
69411;BME280;56604;48.652;9.194;2023-04-26T07:50:12;96325.16;;;11.66;46.32
69411;BME280;56604;48.652;9.194;2023-04-26T07:52:37;96327.03;;;12.08;45.60
69411;BME280;56604;48.652;9.194;2023-04-26T07:55:03;96321.97;;;12.59;47.16
69411;BME280;56604;48.652;9.194;2023-04-26T07:57:29;96325.47;;;12.91;46.70
69411;BME280;56604;48.652;9.194;2023-04-26T07:59:54;96331.31;;;13.13;49.19
69411;BME280;56604;48.652;9.194;2023-04-26T08:02:19;96331.56;;;12.96;46.22
69411;BME280;56604;48.652;9.194;2023-04-26T08:04:48;96325.81;;;13.50;44.96
69411;BME280;56604;48.652;9.194;2023-04-26T08:07:15;96334.91;;;11.98;50.16
69411;BME280;56604;48.652;9.194;2023-04-26T08:09:41;96334.59;;;12.47;50.79
69411;BME280;56604;48.652;9.194;2023-04-26T08:12:06;96335.91;;;12.45;47.12
69411;BME280;56604;48.652;9.194;2023-04-26T08:14:34;96327.06;;;12.97;46.81
69411;BME280;56604;48.652;9.194;2023-04-26T08:17:00;96331.78;;;12.11;49.16
69411;BME280;56604;48.652;9.194;2023-04-26T08:19:26;96336.84;;;13.07;49.33
69411;BME280;56604;48.652;9.194;2023-04-26T08:21:54;96338.25;;;12.46;47.27
69411;BME280;56604;48.652;9.194;2023-04-26T08:24:20;96332.06;;;12.93;48.32
69411;BME280;56604;48.652;9.194;2023-04-26T08:26:45;96338.47;;;13.28;47.68
69411;BME280;56604;48.652;9.194;2023-04-26T08:29:10;96330.56;;;13.33;47.10
69411;BME280;56604;48.652;9.194;2023-04-26T08:31:36;96324.00;;;14.47;43.66
69411;BME280;56604;48.652;9.194;2023-04-26T08:34:01;96329.69;;;14.14;43.49
69411;BME280;56604;48.652;9.194;2023-04-26T08:36:27;96344.63;;;12.60;46.59
69411;BME280;56604;48.652;9.194;2023-04-26T08:38:52;96337.94;;;13.82;47.73
69411;BME280;56604;48.652;9.194;2023-04-26T08:41:21;96331.31;;;13.90;45.40
69411;BME280;56604;48.652;9.194;2023-04-26T08:43:48;96335.22;;;14.08;46.79
69411;BME280;56604;48.652;9.194;2023-04-26T08:46:14;96334.03;;;14.55;43.77
69411;BME280;56604;48.652;9.194;2023-04-26T08:48:44;96349.75;;;13.03;47.78
69411;BME280;56604;48.652;9.194;2023-04-26T08:51:14;96348.72;;;12.26;48.50
69411;BME280;56604;48.652;9.194;2023-04-26T08:53:40;96351.97;;;11.53;47.79
69411;BME280;56604;48.652;9.194;2023-04-26T08:56:07;96350.41;;;11.95;48.96
69411;BME280;56604;48.652;9.194;2023-04-26T08:58:36;96343.38;;;12.10;50.85
69411;BME280;56604;48.652;9.194;2023-04-26T09:01:02;96345.72;;;12.59;51.57
69411;BME280;56604;48.652;9.194;2023-04-26T09:03:28;96348.91;;;12.77;46.64
69411;BME280;56604;48.652;9.194;2023-04-26T09:05:54;96357.97;;;12.28;48.30
69411;BME280;56604;48.652;9.194;2023-04-26T09:08:19;96352.31;;;12.09;45.96
69411;BME280;56604;48.652;9.194;2023-04-26T09:10:46;96353.63;;;11.64;46.26
69411;BME280;56604;48.652;9.194;2023-04-26T09:13:11;96350.13;;;12.38;47.18
69411;BME280;56604;48.652;9.194;2023-04-26T09:15:37;96350.44;;;12.52;45.30
69411;BME280;56604;48.652;9.194;2023-04-26T09:18:19;96341.13;;;13.33;45.00
69411;BME280;56604;48.652;9.194;2023-04-26T09:21:00;96343.19;;;13.11;44.12
69411;BME280;56604;48.652;9.194;2023-04-26T09:23:26;96349.09;;;11.97;45.84
69411;BME280;56604;48.652;9.194;2023-04-26T09:25:52;96335.66;;;11.56;48.40
69411;BME280;56604;48.652;9.194;2023-04-26T09:28:19;96340.53;;;11.10;48.96
69411;BME280;56604;48.652;9.194;2023-04-26T09:30:45;96331.31;;;11.40;47.96
69411;BME280;56604;48.652;9.194;2023-04-26T09:33:11;96338.88;;;11.68;49.32
69411;BME280;56604;48.652;9.194;2023-04-26T09:35:40;96328.81;;;11.92;50.83
69411;BME280;56604;48.652;9.194;2023-04-26T09:38:16;96332.03;;;12.05;46.48
69411;BME280;56604;48.652;9.194;2023-04-26T09:40:43;96323.97;;;12.27;48.12
69411;BME280;56604;48.652;9.194;2023-04-26T09:43:10;96324.84;;;11.58;46.47
69411;BME280;56604;48.652;9.194;2023-04-26T09:45:56;96317.16;;;11.14;49.13
69411;BME280;56604;48.652;9.194;2023-04-26T09:48:23;96314.25;;;11.85;47.20
69411;BME280;56604;48.652;9.194;2023-04-26T09:58:39;96320.50;;;11.74;46.81
69411;BME280;56604;48.652;9.194;2023-04-26T10:01:06;96319.16;;;10.74;48.54
69411;BME280;56604;48.652;9.194;2023-04-26T10:03:33;96320.81;;;12.35;45.36
69411;BME280;56604;48.652;9.194;2023-04-26T10:05:59;96317.09;;;12.26;45.65
69411;BME280;56604;48.652;9.194;2023-04-26T10:08:24;96315.75;;;13.07;47.13
69411;BME280;56604;48.652;9.194;2023-04-26T10:10:50;96312.31;;;13.01;44.96
69411;BME280;56604;48.652;9.194;2023-04-26T10:13:17;96307.81;;;13.17;44.50
69411;BME280;56604;48.652;9.194;2023-04-26T10:15:43;96308.84;;;13.00;46.24
69411;BME280;56604;48.652;9.194;2023-04-26T10:18:09;96308.44;;;12.30;46.20
69411;BME280;56604;48.652;9.194;2023-04-26T10:20:39;96300.75;;;12.24;47.66
69411;BME280;56604;48.652;9.194;2023-04-26T10:23:19;96297.63;;;12.27;46.13
69411;BME280;56604;48.652;9.194;2023-04-26T10:25:46;96302.75;;;11.96;46.87
69411;BME280;56604;48.652;9.194;2023-04-26T10:28:11;96307.75;;;11.98;47.07
69411;BME280;56604;48.652;9.194;2023-04-26T10:30:56;96306.47;;;12.05;47.39
69411;BME280;56604;48.652;9.194;2023-04-26T10:33:22;96304.63;;;12.79;46.98
69411;BME280;56604;48.652;9.194;2023-04-26T10:36:20;96297.50;;;13.20;46.71
69411;BME280;56604;48.652;9.194;2023-04-26T10:39:17;96292.56;;;13.29;45.67
69411;BME280;56604;48.652;9.194;2023-04-26T10:41:44;96297.28;;;13.58;44.44
69411;BME280;56604;48.652;9.194;2023-04-26T10:44:38;96292.00;;;13.37;44.89
69411;BME280;56604;48.652;9.194;2023-04-26T10:47:06;96290.34;;;12.70;45.51
69411;BME280;56604;48.652;9.194;2023-04-26T10:49:43;96299.88;;;12.96;46.46
69411;BME280;56604;48.652;9.194;2023-04-26T10:52:12;96298.59;;;13.19;46.50
69411;BME280;56604;48.652;9.194;2023-04-26T10:54:53;96307.44;;;12.47;46.29
69411;BME280;56604;48.652;9.194;2023-04-26T10:57:20;96305.38;;;11.96;46.54
69411;BME280;56604;48.652;9.194;2023-04-26T11:03:03;96291.44;;;12.06;49.43
69411;BME280;56604;48.652;9.194;2023-04-26T11:05:50;96285.97;;;13.26;46.56
69411;BME280;56604;48.652;9.194;2023-04-26T11:08:20;96278.22;;;13.71;44.48
69411;BME280;56604;48.652;9.194;2023-04-26T11:11:12;96285.53;;;12.46;46.81
69411;BME280;56604;48.652;9.194;2023-04-26T11:13:41;96276.88;;;12.56;48.07
69411;BME280;56604;48.652;9.194;2023-04-26T11:16:11;96262.94;;;13.58;45.75
69411;BME280;56604;48.652;9.194;2023-04-26T11:18:41;96274.31;;;13.48;44.06
69411;BME280;56604;48.652;9.194;2023-04-26T11:21:09;96267.69;;;13.61;43.25
69411;BME280;56604;48.652;9.194;2023-04-26T11:23:35;96274.84;;;13.04;43.60
69411;BME280;56604;48.652;9.194;2023-04-26T11:26:04;96261.38;;;13.36;44.22
69411;BME280;56604;48.652;9.194;2023-04-26T11:28:31;96253.59;;;13.96;43.96
69411;BME280;56604;48.652;9.194;2023-04-26T11:30:57;96263.66;;;14.54;43.43
69411;BME280;56604;48.652;9.194;2023-04-26T11:33:23;96261.81;;;13.89;41.99
69411;BME280;56604;48.652;9.194;2023-04-26T11:35:50;96255.03;;;13.58;42.04
69411;BME280;56604;48.652;9.194;2023-04-26T11:38:16;96243.84;;;13.86;42.90
69411;BME280;56604;48.652;9.194;2023-04-26T11:40:42;96242.16;;;14.06;39.99
69411;BME280;56604;48.652;9.194;2023-04-26T11:43:08;96239.19;;;13.42;43.80
69411;BME280;56604;48.652;9.194;2023-04-26T11:45:35;96239.13;;;13.63;44.11
69411;BME280;56604;48.652;9.194;2023-04-26T11:48:02;96235.28;;;14.15;43.50
69411;BME280;56604;48.652;9.194;2023-04-26T11:50:30;96229.03;;;13.90;41.03
69411;BME280;56604;48.652;9.194;2023-04-26T11:52:58;96237.41;;;14.08;43.17
69411;BME280;56604;48.652;9.194;2023-04-26T11:55:27;96233.94;;;14.17;43.92
69411;BME280;56604;48.652;9.194;2023-04-26T11:57:52;96234.19;;;14.21;44.70
69411;BME280;56604;48.652;9.194;2023-04-26T12:00:18;96224.63;;;14.25;41.98
69411;BME280;56604;48.652;9.194;2023-04-26T12:02:46;96219.78;;;13.93;41.58
69411;BME280;56604;48.652;9.194;2023-04-26T12:05:27;96223.88;;;13.34;44.98
69411;BME280;56604;48.652;9.194;2023-04-26T12:07:57;96217.81;;;13.18;43.54
69411;BME280;56604;48.652;9.194;2023-04-26T12:10:25;96210.69;;;13.19;44.74
69411;BME280;56604;48.652;9.194;2023-04-26T12:12:52;96217.03;;;12.62;44.18
69411;BME280;56604;48.652;9.194;2023-04-26T12:15:23;96220.56;;;12.04;47.24
69411;BME280;56604;48.652;9.194;2023-04-26T12:17:54;96213.84;;;13.16;45.93
69411;BME280;56604;48.652;9.194;2023-04-26T12:20:28;96211.75;;;13.28;44.60
69411;BME280;56604;48.652;9.194;2023-04-26T12:23:04;96216.50;;;13.31;45.01
69411;BME280;56604;48.652;9.194;2023-04-26T12:25:35;96224.41;;;12.85;46.55
69411;BME280;56604;48.652;9.194;2023-04-26T12:28:02;96235.56;;;12.04;46.00
69411;BME280;56604;48.652;9.194;2023-04-26T12:30:28;96228.13;;;11.85;46.13
69411;BME280;56604;48.652;9.194;2023-04-26T12:32:53;96223.03;;;11.68;46.84
69411;BME280;56604;48.652;9.194;2023-04-26T12:35:20;96225.31;;;12.07;46.68
69411;BME280;56604;48.652;9.194;2023-04-26T12:37:45;96221.69;;;12.29;49.84
69411;BME280;56604;48.652;9.194;2023-04-26T12:40:12;96222.63;;;11.92;46.09
69411;BME280;56604;48.652;9.194;2023-04-26T12:42:37;96211.47;;;12.89;47.15
69411;BME280;56604;48.652;9.194;2023-04-26T12:45:03;96206.22;;;12.83;44.54
69411;BME280;56604;48.652;9.194;2023-04-26T12:47:29;96217.50;;;12.38;46.32
69411;BME280;56604;48.652;9.194;2023-04-26T12:49:55;96205.88;;;12.19;46.08
69411;BME280;56604;48.652;9.194;2023-04-26T12:52:21;96196.97;;;12.66;45.70
69411;BME280;56604;48.652;9.194;2023-04-26T12:54:47;96194.34;;;12.81;45.49
69411;BME280;56604;48.652;9.194;2023-04-26T12:57:13;96206.44;;;12.46;44.95
69411;BME280;56604;48.652;9.194;2023-04-26T12:59:38;96208.56;;;12.44;45.36
69411;BME280;56604;48.652;9.194;2023-04-26T13:02:03;96191.44;;;12.88;46.52
69411;BME280;56604;48.652;9.194;2023-04-26T13:04:29;96192.22;;;13.29;46.21
69411;BME280;56604;48.652;9.194;2023-04-26T13:06:54;96194.31;;;12.66;44.61
69411;BME280;56604;48.652;9.194;2023-04-26T13:09:20;96196.72;;;12.88;47.49
69411;BME280;56604;48.652;9.194;2023-04-26T13:11:45;96192.50;;;13.02;43.22
69411;BME280;56604;48.652;9.194;2023-04-26T13:14:11;96191.41;;;13.13;44.15